Time;durP1;ratioP1;P1;durP2;ratioP2;P2;SDS_P1;SDS_P2;PMS_P1;PMS_P2;Temp;Humidity;BMP_temperature;BMP_pressure;BME280_temperature;BME280_humidity;BME280_pressure;Samples;Min_cycle;Max_cycle;Signal;HPM_P1;HPM_P2
2022/08/11 00:01:51;;;;;;;;;;;23.70;75.80;;;;;;4913133;29;19964;-81
2022/08/11 00:04:19;;;;;;;;;;;23.60;75.80;;;;;;4916642;29;19931;-82
2022/08/11 00:06:47;;;;;;;;;;;23.60;75.50;;;;;;4934805;29;19954;-82
2022/08/11 00:09:15;;;;;;;;;;;23.50;75.00;;;;;;4913935;29;19935;-82
2022/08/11 00:11:46;;;;;;;;;;;23.50;74.60;;;;;;4915329;29;19970;-82
2022/08/11 00:14:16;;;;;;;;;;;23.50;74.30;;;;;;4917734;29;19964;-82
2022/08/11 00:16:45;;;;;;;;;;;23.50;74.40;;;;;;4913786;29;19982;-82
2022/08/11 00:19:19;;;;;;;;;;;23.50;74.70;;;;;;4940125;29;19982;-86
2022/08/11 00:22:06;;;;;;;;;;;23.40;74.00;;;;;;4923862;29;19933;-85
2022/08/11 00:24:35;;;;;;;;;;;23.40;73.50;;;;;;4921366;29;19935;-85
2022/08/11 00:27:34;;;;;;;;;;;23.40;73.30;;;;;;4917666;29;19966;-84
2022/08/11 00:30:01;;;;;;;;;;;23.50;73.00;;;;;;4912226;29;19927;-82
2022/08/11 00:32:28;;;;;;;;;;;23.40;72.70;;;;;;4928535;29;19962;-86
2022/08/11 00:34:56;;;;;;;;;;;23.50;73.40;;;;;;4938204;29;19927;-81
2022/08/11 00:37:46;;;;;;;;;;;23.40;74.50;;;;;;4915963;29;20490;-81
2022/08/11 00:40:17;;;;;;;;;;;23.40;73.60;;;;;;4919854;29;19983;-81
2022/08/11 00:43:10;;;;;;;;;;;23.40;73.40;;;;;;4920580;29;19935;-81
2022/08/11 00:46:07;;;;;;;;;;;23.50;73.10;;;;;;4916927;29;19942;-82
2022/08/11 00:48:42;;;;;;;;;;;23.50;72.90;;;;;;4920436;29;19998;-82
2022/08/11 00:51:09;;;;;;;;;;;23.50;73.50;;;;;;4921525;29;20351;-82
2022/08/11 00:53:45;;;;;;;;;;;23.50;73.60;;;;;;4937941;28;20551;-82
2022/08/11 00:56:12;;;;;;;;;;;23.40;73.90;;;;;;4909660;29;19935;-82
2022/08/11 00:58:51;;;;;;;;;;;23.40;74.00;;;;;;4938253;29;20422;-81
2022/08/11 01:01:19;;;;;;;;;;;23.40;73.80;;;;;;4917576;29;19955;-82
2022/08/11 01:04:13;;;;;;;;;;;23.40;74.00;;;;;;4928766;29;19933;-82
2022/08/11 01:07:04;;;;;;;;;;;23.40;73.70;;;;;;4923883;29;19927;-86
2022/08/11 01:09:40;;;;;;;;;;;23.40;73.30;;;;;;4921082;29;20453;-86
2022/08/11 01:12:25;;;;;;;;;;;23.40;73.90;;;;;;4925533;29;19930;-82
2022/08/11 01:14:58;;;;;;;;;;;23.40;73.10;;;;;;4941432;28;20347;-82
2022/08/11 01:17:25;;;;;;;;;;;23.40;72.40;;;;;;4914491;29;19982;-82
2022/08/11 01:20:10;;;;;;;;;;;23.40;72.10;;;;;;4923500;29;20344;-85
2022/08/11 01:23:03;;;;;;;;;;;23.50;72.20;;;;;;4930877;29;20385;-81
2022/08/11 01:25:47;;;;;;;;;;;23.50;71.20;;;;;;4930487;29;19934;-81
2022/08/11 01:28:23;;;;;;;;;;;23.50;70.80;;;;;;4938640;29;20483;-81
2022/08/11 01:30:55;;;;;;;;;;;23.50;70.70;;;;;;4923634;29;19931;-82
2022/08/11 01:33:42;;;;;;;;;;;23.50;70.10;;;;;;4939693;29;19982;-82
2022/08/11 01:36:09;;;;;;;;;;;23.50;69.90;;;;;;4910279;29;19970;-85
2022/08/11 01:38:54;;;;;;;;;;;23.60;69.80;;;;;;4914131;29;19983;-85
2022/08/11 01:44:38;;;;;;;;;;;23.50;69.30;;;;;;4936122;28;20299;-84
2022/08/11 01:47:08;;;;;;;;;;;23.50;69.50;;;;;;4937470;29;19926;-82
2022/08/11 01:49:55;;;;;;;;;;;23.50;68.80;;;;;;4920729;29;19942;-81
2022/08/11 01:52:44;;;;;;;;;;;23.50;69.00;;;;;;4936126;29;19941;-81
2022/08/11 01:55:14;;;;;;;;;;;23.40;69.10;;;;;;4920539;29;19927;-81
2022/08/11 01:57:46;;;;;;;;;;;23.40;68.90;;;;;;4917210;29;19947;-82
2022/08/11 02:03:40;;;;;;;;;;;23.40;67.80;;;;;;4944664;29;19929;-81
2022/08/11 02:06:53;;;;;;;;;;;23.40;67.40;;;;;;4918477;29;19927;-81
2022/08/11 02:09:05;;;;;;;;;;;23.40;67.10;;;;;;4935626;29;19931;-81
2022/08/11 02:11:35;;;;;;;;;;;23.50;66.90;;;;;;4936119;29;20307;-81
2022/08/11 02:14:22;;;;;;;;;;;23.50;66.70;;;;;;4938377;29;20042;-81
2022/08/11 02:16:54;;;;;;;;;;;23.50;66.40;;;;;;4914941;29;19927;-84
2022/08/11 02:25:17;;;;;;;;;;;23.50;65.60;;;;;;4935661;29;20395;-85
2022/08/11 02:27:47;;;;;;;;;;;23.60;65.20;;;;;;4918867;29;19959;-82
2022/08/11 02:30:15;;;;;;;;;;;23.60;64.00;;;;;;4935609;29;19930;-81
2022/08/11 02:36:05;;;;;;;;;;;23.60;63.00;;;;;;4932295;29;19934;-81
2022/08/11 02:38:50;;;;;;;;;;;23.60;62.50;;;;;;4925384;29;19935;-85
2022/08/11 02:44:36;;;;;;;;;;;23.50;61.80;;;;;;4941256;29;19926;-82
2022/08/11 02:47:13;;;;;;;;;;;23.50;61.90;;;;;;4915531;29;19927;-79
2022/08/11 02:49:55;;;;;;;;;;;23.40;63.40;;;;;;4919820;29;19930;-81
2022/08/11 02:52:39;;;;;;;;;;;23.40;63.70;;;;;;4919694;29;19927;-84
2022/08/11 02:55:19;;;;;;;;;;;23.30;64.90;;;;;;4928511;29;19931;-82
2022/08/11 02:58:09;;;;;;;;;;;23.20;65.00;;;;;;4933315;29;19931;-81
2022/08/11 03:00:46;;;;;;;;;;;23.10;65.10;;;;;;4918590;29;19986;-85
2022/08/11 03:03:32;;;;;;;;;;;23.00;66.00;;;;;;4923571;29;20367;-81
2022/08/11 03:06:07;;;;;;;;;;;22.80;67.30;;;;;;4909429;29;19951;-82
2022/08/11 03:08:52;;;;;;;;;;;22.70;69.80;;;;;;4932636;29;19931;-82
2022/08/11 03:17:05;;;;;;;;;;;22.20;73.20;;;;;;4934510;29;19965;-82
2022/08/11 03:19:50;;;;;;;;;;;22.10;73.80;;;;;;4908824;29;19931;-81
2022/08/11 03:22:37;;;;;;;;;;;22.00;73.90;;;;;;4914214;29;19931;-81
2022/08/11 03:25:16;;;;;;;;;;;21.90;73.40;;;;;;4919857;29;19937;-85
2022/08/11 03:28:02;;;;;;;;;;;21.90;73.20;;;;;;4919797;29;19978;-81
2022/08/11 03:30:33;;;;;;;;;;;21.90;73.50;;;;;;4930890;29;19927;-81
2022/08/11 03:35:54;;;;;;;;;;;21.90;73.10;;;;;;4937653;29;28381;-81
2022/08/11 03:38:24;;;;;;;;;;;21.90;72.30;;;;;;4911892;29;19928;-81
2022/08/11 03:44:13;;;;;;;;;;;21.90;71.70;;;;;;4935157;29;19927;-85
2022/08/11 03:46:58;;;;;;;;;;;21.90;71.20;;;;;;4924131;29;19982;-85
2022/08/11 03:49:28;;;;;;;;;;;21.90;70.80;;;;;;4918346;29;19928;-81
2022/08/11 03:52:00;;;;;;;;;;;21.90;71.00;;;;;;4941342;29;19931;-82
2022/08/11 03:54:39;;;;;;;;;;;21.90;70.60;;;;;;4921078;29;19935;-84
2022/08/11 03:57:07;;;;;;;;;;;21.90;70.60;;;;;;4917474;29;19927;-81
2022/08/11 03:59:55;;;;;;;;;;;21.80;70.90;;;;;;4911908;29;20144;-81
2022/08/11 04:02:44;;;;;;;;;;;21.70;71.80;;;;;;4934466;29;19942;-84
2022/08/11 04:05:16;;;;;;;;;;;21.70;71.90;;;;;;4934365;29;19927;-81
2022/08/11 04:07:52;;;;;;;;;;;21.60;73.70;;;;;;4919525;29;19973;-81
2022/08/11 04:10:28;;;;;;;;;;;21.50;74.40;;;;;;4920003;29;20323;-81
2022/08/11 04:13:13;;;;;;;;;;;21.40;74.40;;;;;;4934436;29;19931;-84
2022/08/11 04:16:01;;;;;;;;;;;21.40;74.40;;;;;;4933888;29;19930;-85
2022/08/11 04:18:57;;;;;;;;;;;21.40;74.80;;;;;;4917567;29;19935;-82
2022/08/11 04:21:36;;;;;;;;;;;21.40;74.20;;;;;;4908406;29;19983;-84
2022/08/11 04:24:09;;;;;;;;;;;21.40;74.40;;;;;;4917821;29;19962;-81
2022/08/11 04:26:58;;;;;;;;;;;21.40;74.30;;;;;;4920779;29;20030;-82
2022/08/11 04:29:30;;;;;;;;;;;21.40;75.10;;;;;;4918821;29;19927;-81
2022/08/11 04:32:17;;;;;;;;;;;21.40;75.70;;;;;;4923487;29;19969;-81
2022/08/11 04:34:43;;;;;;;;;;;21.40;76.50;;;;;;4922614;29;19962;-84
2022/08/11 04:37:33;;;;;;;;;;;21.30;75.70;;;;;;4924082;28;19926;-81
2022/08/11 04:40:00;;;;;;;;;;;21.30;75.10;;;;;;4913068;29;19938;-82
2022/08/11 04:45:50;;;;;;;;;;;21.30;74.70;;;;;;4937787;29;19986;-82
2022/08/11 05:02:54;;;;;;;;;;;21.50;75.00;;;;;;4936428;29;19926;-82
2022/08/11 05:05:41;;;;;;;;;;;21.50;75.20;;;;;;4922487;29;19931;-82
2022/08/11 05:08:28;;;;;;;;;;;21.50;75.40;;;;;;4938336;29;19939;-85
2022/08/11 05:11:06;;;;;;;;;;;21.50;75.50;;;;;;4939861;29;20452;-85
2022/08/11 05:36:11;;;;;;;;;;;21.70;76.40;;;;;;4930888;29;19978;-81
2022/08/11 05:58:33;;;;;;;;;;;22.20;72.40;;;;;;4935089;29;19949;-81
2022/08/11 06:01:07;;;;;;;;;;;22.30;71.70;;;;;;4915168;29;19937;-85
2022/08/11 06:04:12;;;;;;;;;;;22.30;71.30;;;;;;4936663;29;20299;-81
2022/08/11 06:06:24;;;;;;;;;;;22.40;70.40;;;;;;4939082;29;19926;-81
2022/08/11 06:08:54;;;;;;;;;;;22.60;69.90;;;;;;4940791;29;19931;-81
2022/08/11 06:11:23;;;;;;;;;;;22.70;69.40;;;;;;4923643;29;19927;-80
2022/08/11 06:14:11;;;;;;;;;;;22.80;69.30;;;;;;4937878;29;20070;-80
2022/08/11 06:16:39;;;;;;;;;;;22.90;71.00;;;;;;4930442;29;20395;-81
2022/08/11 06:19:07;;;;;;;;;;;23.00;72.70;;;;;;4927177;29;19973;-81
2022/08/11 06:21:35;;;;;;;;;;;23.00;72.60;;;;;;4936088;28;19931;-80
2022/08/11 06:24:11;;;;;;;;;;;23.00;72.60;;;;;;4932389;29;19991;-80
2022/08/11 06:26:46;;;;;;;;;;;23.00;71.80;;;;;;4922767;29;19938;-81
2022/08/11 06:29:40;;;;;;;;;;;23.00;71.20;;;;;;4927384;29;20405;-81
2022/08/11 06:32:22;;;;;;;;;;;23.00;70.60;;;;;;4936433;29;20298;-81
2022/08/11 06:34:49;;;;;;;;;;;23.10;69.10;;;;;;4921703;29;19926;-82
2022/08/11 06:37:30;;;;;;;;;;;23.10;67.90;;;;;;4925726;29;20367;-81
2022/08/11 06:40:10;;;;;;;;;;;23.10;67.40;;;;;;4944099;29;19934;-81
2022/08/11 06:42:47;;;;;;;;;;;23.20;66.40;;;;;;4899610;28;19934;-84
2022/08/11 06:45:16;;;;;;;;;;;23.20;65.90;;;;;;4918177;29;19943;-88
2022/08/11 06:47:46;;;;;;;;;;;23.20;65.80;;;;;;4913719;29;19927;-87
2022/08/11 06:53:08;;;;;;;;;;;23.40;66.20;;;;;;4934388;29;20446;-81
2022/08/11 07:01:28;;;;;;;;;;;23.60;66.20;;;;;;4936550;29;19998;-81
2022/08/11 07:03:59;;;;;;;;;;;23.80;64.80;;;;;;4913810;29;19949;-80
2022/08/11 07:06:37;;;;;;;;;;;23.90;63.70;;;;;;4924773;29;19927;-80
2022/08/11 07:30:23;;;;;;;;;;;24.90;56.10;;;;;;4935957;29;19961;-83
2022/08/11 07:32:51;;;;;;;;;;;25.10;53.40;;;;;;4927350;29;19927;-85
2022/08/11 07:35:23;;;;;;;;;;;25.30;53.00;;;;;;4917485;29;19930;-84
2022/08/11 07:37:54;;;;;;;;;;;25.50;53.00;;;;;;4912050;29;19927;-80
2022/08/11 07:40:28;;;;;;;;;;;25.60;52.80;;;;;;4934654;29;19974;-80
2022/08/11 07:42:56;;;;;;;;;;;25.80;52.20;;;;;;4913671;29;19927;-84
2022/08/11 07:53:42;;;;;;;;;;;26.40;48.30;;;;;;4932742;29;19935;-84
2022/08/11 07:56:31;;;;;;;;;;;26.60;49.20;;;;;;4933101;29;20401;-80
2022/08/11 08:19:01;;;;;;;;;;;27.70;45.90;;;;;;4933271;29;19930;-81
2022/08/11 08:21:28;;;;;;;;;;;27.80;46.50;;;;;;4916993;29;19974;-79
2022/08/11 08:23:57;;;;;;;;;;;27.90;45.90;;;;;;4915450;29;19950;-79
2022/08/11 08:32:05;;;;;;;;;;;28.00;43.50;;;;;;4925677;29;19927;-79
2022/08/11 08:34:34;;;;;;;;;;;28.00;44.80;;;;;;4914345;29;19970;-84
2022/08/11 08:37:01;;;;;;;;;;;28.10;45.60;;;;;;4919885;29;19927;-80
2022/08/11 08:39:43;;;;;;;;;;;28.10;43.20;;;;;;4934497;29;19931;-81
2022/08/11 08:42:12;;;;;;;;;;;28.20;44.40;;;;;;4934247;29;19927;-79
2022/08/11 08:44:40;;;;;;;;;;;28.20;45.10;;;;;;4921006;29;19938;-81
2022/08/11 08:47:12;;;;;;;;;;;28.40;45.10;;;;;;4924424;29;19981;-79
2022/08/11 08:49:43;;;;;;;;;;;28.50;44.20;;;;;;4918866;29;20061;-83
2022/08/11 08:52:13;;;;;;;;;;;28.50;43.20;;;;;;4938300;29;19937;-80
2022/08/11 08:55:01;;;;;;;;;;;28.60;41.80;;;;;;4929528;29;20344;-79
2022/08/11 08:57:31;;;;;;;;;;;28.70;43.00;;;;;;4916810;29;19927;-81
2022/08/11 09:00:06;;;;;;;;;;;28.70;43.00;;;;;;4939050;29;20009;-83
2022/08/11 09:02:38;;;;;;;;;;;28.80;42.60;;;;;;4924179;29;19933;-81
2022/08/11 09:05:07;;;;;;;;;;;28.90;42.10;;;;;;4937593;29;20276;-83
2022/08/11 09:07:35;;;;;;;;;;;29.00;42.20;;;;;;4924002;29;19927;-83
2022/08/11 09:10:06;;;;;;;;;;;29.10;42.00;;;;;;4924253;29;19926;-81
2022/08/11 09:12:34;;;;;;;;;;;29.10;39.50;;;;;;4937042;29;19927;-81
2022/08/11 09:15:06;;;;;;;;;;;29.10;40.60;;;;;;4927297;28;19927;-79
2022/08/11 09:17:33;;;;;;;;;;;29.10;41.60;;;;;;4935504;29;20287;-83
2022/08/11 09:20:16;;;;;;;;;;;29.30;42.40;;;;;;4921011;29;19934;-79
2022/08/11 09:28:35;;;;;;;;;;;29.70;41.10;;;;;;4940517;29;19926;-79
2022/08/11 09:31:04;;;;;;;;;;;29.70;41.20;;;;;;4944755;29;19966;-79
2022/08/11 09:33:31;;;;;;;;;;;29.80;41.30;;;;;;4925397;29;19934;-81
2022/08/11 09:40:27;;;;;;;;;;;29.90;40.00;;;;;;4934291;29;19979;-78
2022/08/11 09:41:31;;;;;;;;;;;29.80;40.40;;;;;;4946815;29;19982;-79
2022/08/11 09:47:07;;;;;;;;;;;30.00;39.30;;;;;;4940937;29;20364;-83
2022/08/11 09:49:36;;;;;;;;;;;30.10;40.50;;;;;;4927426;29;19927;-82
2022/08/11 09:52:05;;;;;;;;;;;30.20;40.10;;;;;;4940360;29;19962;-81
2022/08/11 09:54:32;;;;;;;;;;;30.20;40.10;;;;;;4923947;29;19938;-82
2022/08/11 09:59:44;;;;;;;;;;;30.20;38.70;;;;;;4938213;29;19927;-81
2022/08/11 10:02:11;;;;;;;;;;;30.10;38.90;;;;;;4935310;29;19927;-79
2022/08/11 10:04:44;;;;;;;;;;;30.10;39.30;;;;;;4915423;29;19978;-80
2022/08/11 10:07:13;;;;;;;;;;;30.20;39.10;;;;;;4915362;29;19980;-82
2022/08/11 10:09:49;;;;;;;;;;;30.10;38.80;;;;;;4921104;29;19978;-81
2022/08/11 10:12:23;;;;;;;;;;;30.10;39.60;;;;;;4932729;29;19927;-81
2022/08/11 10:20:34;;;;;;;;;;;30.60;38.40;;;;;;4934433;29;19931;-82
2022/08/11 10:28:34;;;;;;;;;;;30.80;38.20;;;;;;4936194;29;19926;-83
2022/08/11 10:34:25;;;;;;;;;;;30.90;38.10;;;;;;4936720;29;20559;-80
2022/08/11 10:36:55;;;;;;;;;;;30.90;37.30;;;;;;4935992;29;20383;-83
2022/08/11 10:39:23;;;;;;;;;;;30.90;38.00;;;;;;4912662;29;19982;-80
2022/08/11 10:44:52;;;;;;;;;;;31.00;37.50;;;;;;4929998;29;19934;-80
2022/08/11 10:47:34;;;;;;;;;;;31.20;38.60;;;;;;4931738;29;19927;-80
2022/08/11 11:01:10;;;;;;;;;;;31.60;36.90;;;;;;4934482;29;20383;-83
2022/08/11 11:03:37;;;;;;;;;;;31.70;36.40;;;;;;4923583;29;19938;-82
2022/08/11 11:06:24;;;;;;;;;;;31.70;36.80;;;;;;4928009;29;19927;-83
2022/08/11 11:08:57;;;;;;;;;;;31.60;35.10;;;;;;4920290;29;19969;-82
2022/08/11 11:20:07;;;;;;;;;;;31.80;34.60;;;;;;4935947;29;19990;-82
2022/08/11 11:22:55;;;;;;;;;;;31.50;35.00;;;;;;4911497;29;20280;-82
2022/08/11 11:25:24;;;;;;;;;;;31.50;36.10;;;;;;4915449;29;19995;-83
2022/08/11 11:28:30;;;;;;;;;;;31.60;36.80;;;;;;4935196;29;19931;-82
2022/08/11 11:31:02;;;;;;;;;;;31.70;36.30;;;;;;4902221;29;19987;-83
2022/08/11 11:33:32;;;;;;;;;;;31.90;35.30;;;;;;4921171;29;19931;-83
2022/08/11 11:36:36;;;;;;;;;;;32.00;35.60;;;;;;4925853;29;20053;-82
2022/08/11 11:39:04;;;;;;;;;;;32.20;35.70;;;;;;4918560;29;19931;-83
2022/08/11 11:41:31;;;;;;;;;;;32.40;34.20;;;;;;4927884;29;20383;-82
2022/08/11 11:43:58;;;;;;;;;;;32.40;35.50;;;;;;4913775;29;19986;-80
2022/08/11 11:46:28;;;;;;;;;;;32.40;34.80;;;;;;4934208;29;20387;-84
2022/08/11 11:48:57;;;;;;;;;;;32.40;34.10;;;;;;4917735;29;19934;-83
2022/08/11 11:51:25;;;;;;;;;;;32.50;35.30;;;;;;4916966;29;20285;-82
2022/08/11 11:53:52;;;;;;;;;;;32.80;34.30;;;;;;4916574;29;19927;-81
2022/08/11 11:56:21;;;;;;;;;;;32.90;33.60;;;;;;4908461;29;20383;-82
2022/08/11 12:01:37;;;;;;;;;;;32.70;32.90;;;;;;4936725;29;19962;-83
2022/08/11 12:04:06;;;;;;;;;;;32.60;33.50;;;;;;4923194;29;20342;-83
2022/08/11 12:06:33;;;;;;;;;;;32.60;33.00;;;;;;4918341;28;19927;-83
2022/08/11 12:09:03;;;;;;;;;;;32.60;33.10;;;;;;4919418;29;20002;-84
2022/08/11 12:14:19;;;;;;;;;;;32.60;33.90;;;;;;4937297;29;19926;-82
2022/08/11 12:16:49;;;;;;;;;;;32.50;33.80;;;;;;4923620;29;19979;-80
2022/08/11 12:19:17;;;;;;;;;;;32.70;34.30;;;;;;4915534;29;20624;-82
2022/08/11 12:27:20;;;;;;;;;;;33.00;33.70;;;;;;4940055;29;19935;-83
2022/08/11 12:30:05;;;;;;;;;;;33.00;34.20;;;;;;4928246;29;19971;-80
2022/08/11 12:32:33;;;;;;;;;;;33.10;34.60;;;;;;4908541;29;19934;-81
2022/08/11 12:35:01;;;;;;;;;;;33.20;33.40;;;;;;4921378;29;19927;-85
2022/08/11 12:37:30;;;;;;;;;;;33.30;33.80;;;;;;4924442;29;19927;-82
2022/08/11 12:46:09;;;;;;;;;;;33.20;33.20;;;;;;4940238;29;19930;-81
2022/08/11 12:54:45;;;;;;;;;;;33.30;32.80;;;;;;4933943;29;20281;-83
2022/08/11 13:05:37;;;;;;;;;;;33.60;33.10;;;;;;4934725;29;19965;-83
2022/08/11 13:08:13;;;;;;;;;;;33.80;34.00;;;;;;4915810;29;19931;-85
2022/08/11 13:13:26;;;;;;;;;;;34.00;33.20;;;;;;4940162;29;19927;-85
2022/08/11 13:16:13;;;;;;;;;;;34.10;33.20;;;;;;4927744;29;20030;-86
2022/08/11 13:18:41;;;;;;;;;;;34.20;33.60;;;;;;4928203;29;20297;-81
2022/08/11 13:21:08;;;;;;;;;;;34.20;32.90;;;;;;4926968;29;19985;-85
2022/08/11 13:23:36;;;;;;;;;;;34.00;32.40;;;;;;4919934;29;19975;-85
2022/08/11 13:26:04;;;;;;;;;;;33.90;32.30;;;;;;4941320;29;20395;-85
2022/08/11 13:28:30;;;;;;;;;;;33.80;32.40;;;;;;4938595;29;19958;-83
2022/08/11 13:31:13;;;;;;;;;;;33.90;32.70;;;;;;4932470;28;19927;-81
2022/08/11 13:33:42;;;;;;;;;;;33.90;33.20;;;;;;4935710;29;19927;-85
2022/08/11 13:36:09;;;;;;;;;;;34.00;33.30;;;;;;4919953;29;19938;-80
2022/08/11 13:38:37;;;;;;;;;;;34.30;33.20;;;;;;4939252;29;19931;-85
2022/08/11 13:41:36;;;;;;;;;;;34.80;33.70;;;;;;4936701;29;19938;-83
2022/08/11 13:43:51;;;;;;;;;;;35.10;32.70;;;;;;4930568;29;20345;-85
2022/08/11 13:46:23;;;;;;;;;;;35.40;32.10;;;;;;4915265;29;19931;-80
2022/08/11 13:48:55;;;;;;;;;;;35.60;31.20;;;;;;4930775;29;19927;-81
2022/08/11 13:51:30;;;;;;;;;;;35.30;30.10;;;;;;4928313;29;20276;-80
2022/08/11 13:54:05;;;;;;;;;;;34.90;30.10;;;;;;4931984;29;19948;-82
2022/08/11 13:56:33;;;;;;;;;;;34.60;31.30;;;;;;4911949;29;19931;-80
2022/08/11 13:59:02;;;;;;;;;;;34.60;31.40;;;;;;4917381;29;20386;-84
2022/08/11 14:01:31;;;;;;;;;;;34.70;30.90;;;;;;4914476;29;19931;-82
2022/08/11 14:04:24;;;;;;;;;;;34.60;30.40;;;;;;4937473;29;19934;-82
2022/08/11 14:06:59;;;;;;;;;;;34.70;31.80;;;;;;4937226;29;19938;-85
2022/08/11 14:09:27;;;;;;;;;;;34.70;31.60;;;;;;4919214;29;19936;-85
2022/08/11 14:14:58;;;;;;;;;;;34.50;31.70;;;;;;4936404;29;19937;-82
2022/08/11 14:17:31;;;;;;;;;;;34.50;31.30;;;;;;4925632;29;19961;-82
2022/08/11 14:20:16;;;;;;;;;;;34.50;32.00;;;;;;4921462;29;19979;-86
2022/08/11 14:23:03;;;;;;;;;;;34.50;31.20;;;;;;4930363;29;19973;-81
2022/08/11 14:25:30;;;;;;;;;;;34.40;31.80;;;;;;4924360;29;20021;-85
2022/08/11 14:28:17;;;;;;;;;;;34.50;31.60;;;;;;4922290;29;20025;-82
2022/08/11 14:31:03;;;;;;;;;;;34.70;31.10;;;;;;4927627;29;20309;-80
2022/08/11 14:33:31;;;;;;;;;;;34.70;30.60;;;;;;4918386;29;20351;-85
2022/08/11 14:36:19;;;;;;;;;;;34.60;31.60;;;;;;4925101;29;19970;-84
2022/08/11 14:38:46;;;;;;;;;;;34.60;32.20;;;;;;4936723;29;19931;-81
2022/08/11 14:49:51;;;;;;;;;;;35.10;31.30;;;;;;4935913;29;20410;-81
2022/08/11 14:52:38;;;;;;;;;;;35.10;31.60;;;;;;4941009;29;19934;-86
2022/08/11 14:57:53;;;;;;;;;;;35.00;30.70;;;;;;4926474;29;20391;-86
2022/08/11 15:00:22;;;;;;;;;;;34.90;30.80;;;;;;4917272;29;19931;-87
2022/08/11 15:03:11;;;;;;;;;;;34.90;31.30;;;;;;4923142;29;19931;-85
2022/08/11 15:05:43;;;;;;;;;;;34.90;31.50;;;;;;4934336;29;19931;-85
2022/08/11 15:08:53;;;;;;;;;;;35.10;31.30;;;;;;4939271;29;19931;-82
2022/08/11 15:13:59;;;;;;;;;;;34.80;31.20;;;;;;4935583;29;20714;-80
2022/08/11 15:19:12;;;;;;;;;;;35.00;31.00;;;;;;4939865;29;19931;-84
2022/08/11 15:24:25;;;;;;;;;;;35.30;30.50;;;;;;4938070;29;19958;-85
2022/08/11 15:38:05;;;;;;;;;;;34.80;30.50;;;;;;4941287;29;19927;-81
2022/08/11 15:46:43;;;;;;;;;;;34.60;30.80;;;;;;4936956;28;19935;-85
2022/08/11 15:49:27;;;;;;;;;;;34.50;30.80;;;;;;4930510;29;20331;-84
2022/08/11 15:52:16;;;;;;;;;;;34.40;31.80;;;;;;4923563;29;20358;-84
2022/08/11 15:54:45;;;;;;;;;;;34.30;31.00;;;;;;4920650;29;19935;-83
2022/08/11 16:04:10;;;;;;;;;;;34.20;31.50;;;;;;4911202;29;20351;-84
2022/08/11 16:05:23;;;;;;;;;;;33.80;32.10;;;;;;4930105;29;20013;-87
2022/08/11 16:08:11;;;;;;;;;;;33.80;32.10;;;;;;4933726;29;20383;-87
2022/08/11 16:10:41;;;;;;;;;;;33.60;32.60;;;;;;4914674;29;19935;-86
2022/08/11 16:18:39;;;;;;;;;;;32.90;32.90;;;;;;4931441;29;19931;-83
2022/08/11 16:21:09;;;;;;;;;;;32.90;33.70;;;;;;4915481;29;19935;-82
2022/08/11 16:23:57;;;;;;;;;;;32.70;32.10;;;;;;4915492;29;19927;-82
2022/08/11 16:26:26;;;;;;;;;;;32.80;33.70;;;;;;4933283;28;19982;-84
2022/08/11 16:29:13;;;;;;;;;;;32.90;33.80;;;;;;4921771;29;20061;-86
2022/08/11 16:31:40;;;;;;;;;;;33.00;33.10;;;;;;4913487;29;20395;-80
2022/08/11 16:38:33;;;;;;;;;;;32.90;33.30;;;;;;4920019;29;20272;-80
2022/08/11 16:39:45;;;;;;;;;;;33.00;33.70;;;;;;4937638;29;19926;-86
2022/08/11 16:48:08;;;;;;;;;;;33.00;33.00;;;;;;4931522;29;19978;-83
2022/08/11 16:50:55;;;;;;;;;;;33.00;33.30;;;;;;4935078;29;19954;-81
2022/08/11 16:53:22;;;;;;;;;;;32.80;32.50;;;;;;4917101;29;19934;-80
2022/08/11 16:56:13;;;;;;;;;;;32.60;32.60;;;;;;4925737;29;20005;-86
2022/08/11 17:01:26;;;;;;;;;;;32.40;33.60;;;;;;4937343;29;20280;-82
2022/08/11 17:13:09;;;;;;;;;;;32.40;34.40;;;;;;4938093;29;20454;-80
2022/08/11 17:18:42;;;;;;;;;;;32.20;34.20;;;;;;4939541;29;19926;-81
2022/08/11 17:21:17;;;;;;;;;;;32.20;34.10;;;;;;4923583;29;19926;-81
2022/08/11 17:23:47;;;;;;;;;;;32.10;34.50;;;;;;4937311;29;19934;-82
2022/08/11 17:26:18;;;;;;;;;;;32.10;34.90;;;;;;4924077;29;19927;-80
2022/08/11 17:28:48;;;;;;;;;;;32.00;35.10;;;;;;4934062;29;19981;-83
2022/08/11 17:36:50;;;;;;;;;;;31.60;35.00;;;;;;4944943;29;19933;-85
2022/08/11 17:39:17;;;;;;;;;;;31.60;35.00;;;;;;4921375;29;19982;-86
2022/08/11 17:50:02;;;;;;;;;;;30.80;36.40;;;;;;4934323;29;19971;-80
2022/08/11 18:01:06;;;;;;;;;;;30.10;38.00;;;;;;4935756;29;19974;-79
2022/08/11 18:03:38;;;;;;;;;;;30.00;38.70;;;;;;4912246;29;19927;-80
2022/08/11 18:06:07;;;;;;;;;;;30.00;40.00;;;;;;4943595;29;19934;-84
